sensor_id;sensor_type;location;lat;lon;timestamp;P1;durP1;ratioP1;P2;durP2;ratioP2
58306;SDS011;44116;50.884;4.768;2023-01-31T00:00:06;27.2;;;8.3;;
58306;SDS011;44116;50.884;4.768;2023-01-31T00:02:05;21.1;;;7.2;;
58306;SDS011;44116;50.884;4.768;2023-01-31T00:04:07;25.5;;;8.1;;
58306;SDS011;44116;50.884;4.768;2023-01-31T00:06:15;28.8;;;7.8;;
58306;SDS011;44116;50.884;4.768;2023-01-31T00:08:04;24.3;;;7.5;;
58306;SDS011;44116;50.884;4.768;2023-01-31T00:10:03;28.8;;;7.8;;
58306;SDS011;44116;50.884;4.768;2023-01-31T00:12:03;22.8;;;7.4;;
58306;SDS011;44116;50.884;4.768;2023-01-31T00:14:04;27.6;;;7.9;;
58306;SDS011;44116;50.884;4.768;2023-01-31T00:16:03;26.0;;;7.4;;
58306;SDS011;44116;50.884;4.768;2023-01-31T00:18:01;22.6;;;7.6;;
58306;SDS011;44116;50.884;4.768;2023-01-31T00:20:01;25.4;;;7.7;;
58306;SDS011;44116;50.884;4.768;2023-01-31T00:22:01;26.7;;;7.9;;
58306;SDS011;44116;50.884;4.768;2023-01-31T00:24:00;27.8;;;7.3;;
58306;SDS011;44116;50.884;4.768;2023-01-31T00:26:08;24.6;;;7.5;;
58306;SDS011;44116;50.884;4.768;2023-01-31T00:27:59;21.1;;;6.5;;
58306;SDS011;44116;50.884;4.768;2023-01-31T00:29:59;27.7;;;7.7;;
58306;SDS011;44116;50.884;4.768;2023-01-31T00:31:58;22.4;;;7.4;;
58306;SDS011;44116;50.884;4.768;2023-01-31T00:33:58;25.0;;;6.6;;
58306;SDS011;44116;50.884;4.768;2023-01-31T00:35:58;25.4;;;7.0;;
58306;SDS011;44116;50.884;4.768;2023-01-31T00:37:57;23.9;;;7.7;;
58306;SDS011;44116;50.884;4.768;2023-01-31T00:39:57;21.5;;;7.3;;
58306;SDS011;44116;50.884;4.768;2023-01-31T00:43:56;28.4;;;8.2;;
58306;SDS011;44116;50.884;4.768;2023-01-31T00:45:55;24.9;;;6.8;;
58306;SDS011;44116;50.884;4.768;2023-01-31T00:47:55;24.2;;;7.4;;
58306;SDS011;44116;50.884;4.768;2023-01-31T00:49:54;27.9;;;7.8;;
58306;SDS011;44116;50.884;4.768;2023-01-31T00:51:54;24.5;;;7.9;;
58306;SDS011;44116;50.884;4.768;2023-01-31T00:55:55;26.7;;;7.3;;
58306;SDS011;44116;50.884;4.768;2023-01-31T00:57:52;29.7;;;7.8;;
58306;SDS011;44116;50.884;4.768;2023-01-31T00:59:52;22.5;;;6.8;;
58306;SDS011;44116;50.884;4.768;2023-01-31T01:01:51;23.1;;;6.9;;
58306;SDS011;44116;50.884;4.768;2023-01-31T01:03:52;28.7;;;7.5;;
58306;SDS011;44116;50.884;4.768;2023-01-31T01:05:50;26.3;;;7.4;;
58306;SDS011;44116;50.884;4.768;2023-01-31T01:07:50;20.8;;;7.5;;
58306;SDS011;44116;50.884;4.768;2023-01-31T01:09:49;22.5;;;7.2;;
58306;SDS011;44116;50.884;4.768;2023-01-31T01:11:49;25.3;;;6.9;;
58306;SDS011;44116;50.884;4.768;2023-01-31T01:13:49;23.3;;;7.3;;
58306;SDS011;44116;50.884;4.768;2023-01-31T01:15:49;26.3;;;7.6;;
58306;SDS011;44116;50.884;4.768;2023-01-31T01:17:48;24.8;;;7.8;;
58306;SDS011;44116;50.884;4.768;2023-01-31T01:19:47;20.9;;;7.1;;
58306;SDS011;44116;50.884;4.768;2023-01-31T01:21:47;19.7;;;6.6;;
58306;SDS011;44116;50.884;4.768;2023-01-31T01:23:47;30.4;;;7.8;;
58306;SDS011;44116;50.884;4.768;2023-01-31T01:25:46;22.8;;;7.2;;
58306;SDS011;44116;50.884;4.768;2023-01-31T01:29:45;24.6;;;8.1;;
58306;SDS011;44116;50.884;4.768;2023-01-31T01:31:44;19.8;;;7.0;;
58306;SDS011;44116;50.884;4.768;2023-01-31T01:33:45;26.7;;;7.8;;
58306;SDS011;44116;50.884;4.768;2023-01-31T01:37:43;27.0;;;7.6;;
58306;SDS011;44116;50.884;4.768;2023-01-31T01:39:43;22.7;;;7.5;;
58306;SDS011;44116;50.884;4.768;2023-01-31T01:41:43;22.3;;;7.3;;
58306;SDS011;44116;50.884;4.768;2023-01-31T01:43:44;23.0;;;7.4;;
58306;SDS011;44116;50.884;4.768;2023-01-31T01:45:42;22.6;;;7.5;;
58306;SDS011;44116;50.884;4.768;2023-01-31T01:47:44;21.5;;;7.4;;
58306;SDS011;44116;50.884;4.768;2023-01-31T01:49:41;26.1;;;7.1;;
58306;SDS011;44116;50.884;4.768;2023-01-31T01:51:41;24.1;;;7.7;;
58306;SDS011;44116;50.884;4.768;2023-01-31T01:53:42;20.7;;;7.1;;
58306;SDS011;44116;50.884;4.768;2023-01-31T01:55:42;24.9;;;8.0;;
58306;SDS011;44116;50.884;4.768;2023-01-31T01:59:42;22.0;;;7.1;;
58306;SDS011;44116;50.884;4.768;2023-01-31T02:01:39;22.4;;;7.0;;
58306;SDS011;44116;50.884;4.768;2023-01-31T02:03:37;23.0;;;7.2;;
58306;SDS011;44116;50.884;4.768;2023-01-31T02:05:40;25.1;;;7.3;;
58306;SDS011;44116;50.884;4.768;2023-01-31T02:09:43;27.2;;;7.7;;
58306;SDS011;44116;50.884;4.768;2023-01-31T02:11:35;24.6;;;6.5;;
58306;SDS011;44116;50.884;4.768;2023-01-31T02:13:36;23.5;;;8.3;;
58306;SDS011;44116;50.884;4.768;2023-01-31T02:17:34;19.6;;;7.5;;
58306;SDS011;44116;50.884;4.768;2023-01-31T02:19:40;22.4;;;7.6;;
58306;SDS011;44116;50.884;4.768;2023-01-31T02:21:51;21.2;;;7.8;;
58306;SDS011;44116;50.884;4.768;2023-01-31T02:23:48;23.2;;;8.0;;
58306;SDS011;44116;50.884;4.768;2023-01-31T02:25:46;25.1;;;7.7;;
58306;SDS011;44116;50.884;4.768;2023-01-31T02:27:47;21.8;;;7.5;;
58306;SDS011;44116;50.884;4.768;2023-01-31T02:29:38;21.9;;;7.7;;
58306;SDS011;44116;50.884;4.768;2023-01-31T02:33:35;25.3;;;7.8;;
58306;SDS011;44116;50.884;4.768;2023-01-31T02:35:41;26.2;;;8.7;;
58306;SDS011;44116;50.884;4.768;2023-01-31T02:37:36;29.5;;;9.0;;
58306;SDS011;44116;50.884;4.768;2023-01-31T02:39:37;27.7;;;8.6;;
58306;SDS011;44116;50.884;4.768;2023-01-31T02:43:34;25.1;;;8.7;;
58306;SDS011;44116;50.884;4.768;2023-01-31T02:45:34;25.3;;;8.1;;
58306;SDS011;44116;50.884;4.768;2023-01-31T02:47:38;28.5;;;8.9;;
58306;SDS011;44116;50.884;4.768;2023-01-31T02:49:33;27.6;;;8.2;;
58306;SDS011;44116;50.884;4.768;2023-01-31T02:51:30;22.3;;;8.1;;
58306;SDS011;44116;50.884;4.768;2023-01-31T02:53:29;29.0;;;9.0;;
58306;SDS011;44116;50.884;4.768;2023-01-31T02:55:28;19.8;;;8.3;;
58306;SDS011;44116;50.884;4.768;2023-01-31T02:57:24;27.9;;;8.4;;
58306;SDS011;44116;50.884;4.768;2023-01-31T02:59:24;29.5;;;9.7;;
58306;SDS011;44116;50.884;4.768;2023-01-31T03:01:27;24.0;;;9.2;;
58306;SDS011;44116;50.884;4.768;2023-01-31T03:03:26;25.0;;;8.1;;
58306;SDS011;44116;50.884;4.768;2023-01-31T03:05:22;29.0;;;8.7;;
58306;SDS011;44116;50.884;4.768;2023-01-31T03:07:23;22.6;;;8.6;;
58306;SDS011;44116;50.884;4.768;2023-01-31T03:09:28;28.8;;;9.1;;
58306;SDS011;44116;50.884;4.768;2023-01-31T03:13:31;22.5;;;8.6;;
58306;SDS011;44116;50.884;4.768;2023-01-31T03:15:29;22.4;;;8.5;;
58306;SDS011;44116;50.884;4.768;2023-01-31T03:21:24;27.9;;;9.1;;
58306;SDS011;44116;50.884;4.768;2023-01-31T03:25:20;23.5;;;8.4;;
58306;SDS011;44116;50.884;4.768;2023-01-31T03:27:18;30.5;;;10.1;;
58306;SDS011;44116;50.884;4.768;2023-01-31T03:29:17;24.5;;;9.1;;
58306;SDS011;44116;50.884;4.768;2023-01-31T03:31:19;24.4;;;8.2;;
58306;SDS011;44116;50.884;4.768;2023-01-31T03:33:20;24.1;;;8.9;;
58306;SDS011;44116;50.884;4.768;2023-01-31T03:35:15;21.6;;;8.1;;
58306;SDS011;44116;50.884;4.768;2023-01-31T03:37:18;22.8;;;8.5;;
58306;SDS011;44116;50.884;4.768;2023-01-31T03:39:21;24.0;;;8.6;;
58306;SDS011;44116;50.884;4.768;2023-01-31T03:41:21;25.0;;;8.4;;
58306;SDS011;44116;50.884;4.768;2023-01-31T03:43:24;19.5;;;8.0;;
58306;SDS011;44116;50.884;4.768;2023-01-31T03:45:18;27.5;;;8.8;;
58306;SDS011;44116;50.884;4.768;2023-01-31T03:47:16;27.5;;;9.0;;
58306;SDS011;44116;50.884;4.768;2023-01-31T03:49:14;21.9;;;8.6;;
58306;SDS011;44116;50.884;4.768;2023-01-31T03:51:15;23.9;;;8.1;;
58306;SDS011;44116;50.884;4.768;2023-01-31T03:55:15;23.9;;;8.4;;
58306;SDS011;44116;50.884;4.768;2023-01-31T03:57:15;24.7;;;8.1;;
58306;SDS011;44116;50.884;4.768;2023-01-31T03:59:14;22.9;;;8.7;;
58306;SDS011;44116;50.884;4.768;2023-01-31T04:01:09;24.7;;;7.8;;
58306;SDS011;44116;50.884;4.768;2023-01-31T04:03:13;22.5;;;7.9;;
58306;SDS011;44116;50.884;4.768;2023-01-31T04:07:08;23.0;;;7.4;;
58306;SDS011;44116;50.884;4.768;2023-01-31T04:09:07;22.8;;;7.3;;
58306;SDS011;44116;50.884;4.768;2023-01-31T04:13:06;21.0;;;7.9;;
58306;SDS011;44116;50.884;4.768;2023-01-31T04:15:07;26.6;;;8.1;;
58306;SDS011;44116;50.884;4.768;2023-01-31T04:17:05;22.6;;;7.0;;
58306;SDS011;44116;50.884;4.768;2023-01-31T04:19:05;21.4;;;7.1;;
58306;SDS011;44116;50.884;4.768;2023-01-31T04:21:04;23.3;;;7.3;;
58306;SDS011;44116;50.884;4.768;2023-01-31T04:23:04;25.5;;;7.7;;
58306;SDS011;44116;50.884;4.768;2023-01-31T04:25:04;22.9;;;7.0;;
58306;SDS011;44116;50.884;4.768;2023-01-31T04:27:03;19.8;;;7.2;;
58306;SDS011;44116;50.884;4.768;2023-01-31T04:29:03;26.1;;;8.0;;
58306;SDS011;44116;50.884;4.768;2023-01-31T04:31:02;22.9;;;7.6;;
58306;SDS011;44116;50.884;4.768;2023-01-31T04:33:01;22.1;;;6.7;;
58306;SDS011;44116;50.884;4.768;2023-01-31T04:35:01;21.3;;;7.1;;
58306;SDS011;44116;50.884;4.768;2023-01-31T04:37:00;26.4;;;8.7;;
58306;SDS011;44116;50.884;4.768;2023-01-31T04:39:00;24.0;;;7.9;;
58306;SDS011;44116;50.884;4.768;2023-01-31T04:40:59;27.5;;;7.4;;
58306;SDS011;44116;50.884;4.768;2023-01-31T04:42:59;25.1;;;8.1;;
58306;SDS011;44116;50.884;4.768;2023-01-31T04:44:58;23.7;;;8.5;;
58306;SDS011;44116;50.884;4.768;2023-01-31T04:46:58;22.5;;;8.0;;
58306;SDS011;44116;50.884;4.768;2023-01-31T04:48:58;23.1;;;7.6;;
58306;SDS011;44116;50.884;4.768;2023-01-31T04:50:57;23.5;;;7.8;;
58306;SDS011;44116;50.884;4.768;2023-01-31T04:52:56;28.6;;;7.9;;
58306;SDS011;44116;50.884;4.768;2023-01-31T04:54:56;19.4;;;7.2;;
58306;SDS011;44116;50.884;4.768;2023-01-31T04:56:55;23.3;;;7.4;;
58306;SDS011;44116;50.884;4.768;2023-01-31T04:58:55;22.2;;;8.1;;
58306;SDS011;44116;50.884;4.768;2023-01-31T05:00:55;19.4;;;7.4;;
58306;SDS011;44116;50.884;4.768;2023-01-31T05:02:54;21.0;;;7.5;;
58306;SDS011;44116;50.884;4.768;2023-01-31T05:04:54;21.0;;;7.6;;
58306;SDS011;44116;50.884;4.768;2023-01-31T05:06:53;30.2;;;8.6;;
58306;SDS011;44116;50.884;4.768;2023-01-31T05:08:53;20.1;;;6.9;;
58306;SDS011;44116;50.884;4.768;2023-01-31T05:10:56;24.9;;;7.7;;
58306;SDS011;44116;50.884;4.768;2023-01-31T05:12:52;25.1;;;8.5;;
58306;SDS011;44116;50.884;4.768;2023-01-31T05:14:51;22.7;;;7.8;;
58306;SDS011;44116;50.884;4.768;2023-01-31T05:16:51;23.0;;;6.9;;
58306;SDS011;44116;50.884;4.768;2023-01-31T05:18:50;22.6;;;7.2;;
58306;SDS011;44116;50.884;4.768;2023-01-31T05:20:50;20.8;;;7.1;;
58306;SDS011;44116;50.884;4.768;2023-01-31T05:22:49;22.4;;;8.0;;
58306;SDS011;44116;50.884;4.768;2023-01-31T05:24:50;24.2;;;7.7;;
58306;SDS011;44116;50.884;4.768;2023-01-31T05:26:49;17.8;;;6.9;;
58306;SDS011;44116;50.884;4.768;2023-01-31T05:28:48;23.1;;;7.3;;
58306;SDS011;44116;50.884;4.768;2023-01-31T05:30:48;20.9;;;7.0;;
58306;SDS011;44116;50.884;4.768;2023-01-31T05:32:47;19.5;;;6.3;;
58306;SDS011;44116;50.884;4.768;2023-01-31T05:34:46;22.1;;;6.9;;
58306;SDS011;44116;50.884;4.768;2023-01-31T05:36:46;21.8;;;7.0;;
58306;SDS011;44116;50.884;4.768;2023-01-31T05:38:45;20.4;;;7.1;;
58306;SDS011;44116;50.884;4.768;2023-01-31T05:40:45;22.1;;;6.6;;
58306;SDS011;44116;50.884;4.768;2023-01-31T05:42:49;25.3;;;6.9;;
58306;SDS011;44116;50.884;4.768;2023-01-31T05:46:44;17.6;;;6.2;;
58306;SDS011;44116;50.884;4.768;2023-01-31T05:48:43;16.2;;;5.9;;
58306;SDS011;44116;50.884;4.768;2023-01-31T05:50:43;19.9;;;6.8;;
58306;SDS011;44116;50.884;4.768;2023-01-31T05:54:42;21.0;;;6.6;;
58306;SDS011;44116;50.884;4.768;2023-01-31T05:56:41;23.4;;;6.8;;
58306;SDS011;44116;50.884;4.768;2023-01-31T05:58:41;20.0;;;6.1;;
58306;SDS011;44116;50.884;4.768;2023-01-31T06:00:40;22.7;;;6.7;;
58306;SDS011;44116;50.884;4.768;2023-01-31T06:02:40;21.2;;;6.8;;
58306;SDS011;44116;50.884;4.768;2023-01-31T06:04:39;28.3;;;7.1;;
58306;SDS011;44116;50.884;4.768;2023-01-31T06:06:39;23.8;;;6.6;;
58306;SDS011;44116;50.884;4.768;2023-01-31T06:08:39;19.3;;;7.0;;
58306;SDS011;44116;50.884;4.768;2023-01-31T06:10:38;27.7;;;7.6;;
58306;SDS011;44116;50.884;4.768;2023-01-31T06:12:38;25.3;;;7.7;;
58306;SDS011;44116;50.884;4.768;2023-01-31T06:14:37;23.1;;;7.9;;
58306;SDS011;44116;50.884;4.768;2023-01-31T06:16:37;25.2;;;9.3;;
58306;SDS011;44116;50.884;4.768;2023-01-31T06:18:36;26.3;;;8.2;;
58306;SDS011;44116;50.884;4.768;2023-01-31T06:20:35;26.7;;;9.3;;
58306;SDS011;44116;50.884;4.768;2023-01-31T06:22:35;27.5;;;9.1;;
58306;SDS011;44116;50.884;4.768;2023-01-31T06:24:34;30.0;;;9.7;;
58306;SDS011;44116;50.884;4.768;2023-01-31T06:26:34;31.5;;;8.6;;
58306;SDS011;44116;50.884;4.768;2023-01-31T06:28:35;27.9;;;9.1;;
58306;SDS011;44116;50.884;4.768;2023-01-31T06:30:34;27.7;;;9.4;;
58306;SDS011;44116;50.884;4.768;2023-01-31T06:32:33;29.8;;;8.4;;
58306;SDS011;44116;50.884;4.768;2023-01-31T06:36:32;25.1;;;9.0;;
58306;SDS011;44116;50.884;4.768;2023-01-31T06:40:31;26.7;;;9.5;;
58306;SDS011;44116;50.884;4.768;2023-01-31T06:42:30;26.7;;;8.4;;
58306;SDS011;44116;50.884;4.768;2023-01-31T06:48:29;30.0;;;9.8;;
58306;SDS011;44116;50.884;4.768;2023-01-31T06:50:28;27.0;;;9.4;;
58306;SDS011;44116;50.884;4.768;2023-01-31T06:52:28;26.3;;;9.9;;
58306;SDS011;44116;50.884;4.768;2023-01-31T06:54:27;26.8;;;9.5;;
58306;SDS011;44116;50.884;4.768;2023-01-31T06:56:27;26.8;;;8.8;;
58306;SDS011;44116;50.884;4.768;2023-01-31T06:58:26;24.4;;;8.6;;
58306;SDS011;44116;50.884;4.768;2023-01-31T07:00:26;24.1;;;8.1;;
58306;SDS011;44116;50.884;4.768;2023-01-31T07:02:25;26.1;;;8.6;;
58306;SDS011;44116;50.884;4.768;2023-01-31T07:04:25;26.4;;;8.4;;
58306;SDS011;44116;50.884;4.768;2023-01-31T07:06:25;23.2;;;7.9;;
58306;SDS011;44116;50.884;4.768;2023-01-31T07:08:24;27.7;;;8.5;;
58306;SDS011;44116;50.884;4.768;2023-01-31T07:10:23;26.7;;;8.2;;
58306;SDS011;44116;50.884;4.768;2023-01-31T07:12:23;25.5;;;8.3;;
58306;SDS011;44116;50.884;4.768;2023-01-31T07:14:23;24.9;;;8.6;;
58306;SDS011;44116;50.884;4.768;2023-01-31T07:16:22;23.9;;;7.5;;
58306;SDS011;44116;50.884;4.768;2023-01-31T07:18:22;28.9;;;9.0;;
58306;SDS011;44116;50.884;4.768;2023-01-31T07:20:21;24.2;;;7.5;;
58306;SDS011;44116;50.884;4.768;2023-01-31T07:22:21;21.2;;;7.7;;
58306;SDS011;44116;50.884;4.768;2023-01-31T07:24:20;22.6;;;8.1;;
58306;SDS011;44116;50.884;4.768;2023-01-31T07:26:20;27.0;;;8.3;;
58306;SDS011;44116;50.884;4.768;2023-01-31T07:28:19;24.7;;;8.7;;
58306;SDS011;44116;50.884;4.768;2023-01-31T07:30:19;24.8;;;8.5;;
58306;SDS011;44116;50.884;4.768;2023-01-31T07:32:18;24.4;;;8.2;;
58306;SDS011;44116;50.884;4.768;2023-01-31T07:34:18;25.9;;;8.6;;
58306;SDS011;44116;50.884;4.768;2023-01-31T07:36:18;25.9;;;8.9;;
58306;SDS011;44116;50.884;4.768;2023-01-31T07:38:17;21.5;;;7.3;;
58306;SDS011;44116;50.884;4.768;2023-01-31T07:40:17;27.9;;;8.7;;
58306;SDS011;44116;50.884;4.768;2023-01-31T07:42:16;23.6;;;8.6;;
58306;SDS011;44116;50.884;4.768;2023-01-31T07:44:15;22.4;;;7.8;;
58306;SDS011;44116;50.884;4.768;2023-01-31T07:46:15;22.8;;;8.0;;
58306;SDS011;44116;50.884;4.768;2023-01-31T07:48:15;24.3;;;8.1;;
58306;SDS011;44116;50.884;4.768;2023-01-31T07:50:14;22.5;;;7.4;;
58306;SDS011;44116;50.884;4.768;2023-01-31T07:56:14;20.3;;;6.9;;
58306;SDS011;44116;50.884;4.768;2023-01-31T07:58:13;21.1;;;7.1;;
58306;SDS011;44116;50.884;4.768;2023-01-31T08:00:13;24.3;;;7.2;;
58306;SDS011;44116;50.884;4.768;2023-01-31T08:02:13;19.8;;;7.5;;
58306;SDS011;44116;50.884;4.768;2023-01-31T08:04:12;22.5;;;6.9;;
58306;SDS011;44116;50.884;4.768;2023-01-31T08:06:12;20.8;;;6.8;;
58306;SDS011;44116;50.884;4.768;2023-01-31T08:08:10;27.3;;;8.0;;
58306;SDS011;44116;50.884;4.768;2023-01-31T08:14:09;20.4;;;7.8;;
58306;SDS011;44116;50.884;4.768;2023-01-31T08:16:09;26.3;;;6.9;;
58306;SDS011;44116;50.884;4.768;2023-01-31T08:18:08;21.3;;;6.8;;
58306;SDS011;44116;50.884;4.768;2023-01-31T08:20:08;22.3;;;7.5;;
58306;SDS011;44116;50.884;4.768;2023-01-31T08:22:07;20.0;;;6.6;;
58306;SDS011;44116;50.884;4.768;2023-01-31T08:26:08;20.0;;;6.9;;
58306;SDS011;44116;50.884;4.768;2023-01-31T08:28:06;22.2;;;7.1;;
58306;SDS011;44116;50.884;4.768;2023-01-31T08:30:06;19.6;;;6.1;;
58306;SDS011;44116;50.884;4.768;2023-01-31T08:32:05;18.0;;;7.0;;
58306;SDS011;44116;50.884;4.768;2023-01-31T08:34:05;20.5;;;7.2;;
58306;SDS011;44116;50.884;4.768;2023-01-31T08:36:08;22.6;;;7.4;;
58306;SDS011;44116;50.884;4.768;2023-01-31T08:38:03;20.8;;;6.0;;
58306;SDS011;44116;50.884;4.768;2023-01-31T08:40:03;22.4;;;6.6;;
58306;SDS011;44116;50.884;4.768;2023-01-31T08:42:02;20.2;;;6.0;;
58306;SDS011;44116;50.884;4.768;2023-01-31T08:44:02;17.5;;;6.7;;
58306;SDS011;44116;50.884;4.768;2023-01-31T08:46:01;17.7;;;5.9;;
58306;SDS011;44116;50.884;4.768;2023-01-31T08:48:02;19.6;;;7.0;;
58306;SDS011;44116;50.884;4.768;2023-01-31T08:50:00;17.4;;;6.3;;
58306;SDS011;44116;50.884;4.768;2023-01-31T08:52:00;21.1;;;6.4;;
58306;SDS011;44116;50.884;4.768;2023-01-31T08:54:00;20.7;;;5.9;;
58306;SDS011;44116;50.884;4.768;2023-01-31T08:56:01;24.3;;;6.5;;
58306;SDS011;44116;50.884;4.768;2023-01-31T08:57:59;20.5;;;7.6;;
58306;SDS011;44116;50.884;4.768;2023-01-31T08:59:58;23.8;;;6.8;;
58306;SDS011;44116;50.884;4.768;2023-01-31T09:01:58;22.6;;;6.2;;
58306;SDS011;44116;50.884;4.768;2023-01-31T09:03:57;18.1;;;6.1;;
58306;SDS011;44116;50.884;4.768;2023-01-31T09:05:57;20.3;;;5.3;;
58306;SDS011;44116;50.884;4.768;2023-01-31T09:07:57;22.9;;;6.8;;
58306;SDS011;44116;50.884;4.768;2023-01-31T09:09:56;22.9;;;6.6;;
58306;SDS011;44116;50.884;4.768;2023-01-31T09:11:56;20.7;;;5.7;;
58306;SDS011;44116;50.884;4.768;2023-01-31T09:13:56;18.9;;;5.5;;
58306;SDS011;44116;50.884;4.768;2023-01-31T09:15:57;20.3;;;6.6;;
58306;SDS011;44116;50.884;4.768;2023-01-31T09:19:54;22.3;;;8.6;;
58306;SDS011;44116;50.884;4.768;2023-01-31T09:21:53;19.3;;;6.3;;
58306;SDS011;44116;50.884;4.768;2023-01-31T09:23:54;24.2;;;7.6;;
58306;SDS011;44116;50.884;4.768;2023-01-31T09:25:53;19.9;;;6.4;;
58306;SDS011;44116;50.884;4.768;2023-01-31T09:27:52;19.8;;;5.7;;
58306;SDS011;44116;50.884;4.768;2023-01-31T09:29:52;22.6;;;6.3;;
58306;SDS011;44116;50.884;4.768;2023-01-31T09:35:55;20.7;;;5.6;;
58306;SDS011;44116;50.884;4.768;2023-01-31T09:37:50;19.0;;;6.1;;
58306;SDS011;44116;50.884;4.768;2023-01-31T09:39:49;21.9;;;6.3;;
58306;SDS011;44116;50.884;4.768;2023-01-31T09:41:52;18.4;;;5.4;;
58306;SDS011;44116;50.884;4.768;2023-01-31T09:43:52;16.2;;;5.1;;
58306;SDS011;44116;50.884;4.768;2023-01-31T09:45:50;17.0;;;5.4;;
58306;SDS011;44116;50.884;4.768;2023-01-31T09:47:51;17.7;;;5.0;;
58306;SDS011;44116;50.884;4.768;2023-01-31T09:49:52;21.1;;;5.7;;
58306;SDS011;44116;50.884;4.768;2023-01-31T09:51:51;23.1;;;5.9;;
58306;SDS011;44116;50.884;4.768;2023-01-31T09:53:47;20.4;;;5.4;;
58306;SDS011;44116;50.884;4.768;2023-01-31T09:55:53;21.6;;;5.5;;
58306;SDS011;44116;50.884;4.768;2023-01-31T09:57:54;19.1;;;5.6;;
58306;SDS011;44116;50.884;4.768;2023-01-31T09:59:48;21.2;;;5.5;;
58306;SDS011;44116;50.884;4.768;2023-01-31T10:01:50;18.3;;;6.1;;
58306;SDS011;44116;50.884;4.768;2023-01-31T10:03:55;18.1;;;5.5;;
58306;SDS011;44116;50.884;4.768;2023-01-31T10:05:49;16.6;;;5.2;;
58306;SDS011;44116;50.884;4.768;2023-01-31T10:07:49;21.4;;;5.7;;
58306;SDS011;44116;50.884;4.768;2023-01-31T10:09:47;18.0;;;5.8;;
58306;SDS011;44116;50.884;4.768;2023-01-31T10:11:46;21.0;;;5.6;;
58306;SDS011;44116;50.884;4.768;2023-01-31T10:13:46;17.8;;;5.8;;
58306;SDS011;44116;50.884;4.768;2023-01-31T10:17:45;17.0;;;5.3;;
58306;SDS011;44116;50.884;4.768;2023-01-31T10:19:45;18.8;;;6.1;;
58306;SDS011;44116;50.884;4.768;2023-01-31T10:21:46;21.2;;;5.3;;
58306;SDS011;44116;50.884;4.768;2023-01-31T10:23:45;18.7;;;5.8;;
58306;SDS011;44116;50.884;4.768;2023-01-31T10:25:46;22.8;;;5.6;;
58306;SDS011;44116;50.884;4.768;2023-01-31T10:27:45;20.5;;;5.5;;
58306;SDS011;44116;50.884;4.768;2023-01-31T10:31:42;19.2;;;5.4;;
58306;SDS011;44116;50.884;4.768;2023-01-31T10:33:43;27.9;;;5.9;;
58306;SDS011;44116;50.884;4.768;2023-01-31T10:35:41;19.9;;;6.2;;
58306;SDS011;44116;50.884;4.768;2023-01-31T10:37:42;20.4;;;5.3;;
58306;SDS011;44116;50.884;4.768;2023-01-31T10:39:41;22.9;;;5.4;;
58306;SDS011;44116;50.884;4.768;2023-01-31T10:41:46;19.3;;;5.2;;
58306;SDS011;44116;50.884;4.768;2023-01-31T10:43:39;19.0;;;5.5;;
58306;SDS011;44116;50.884;4.768;2023-01-31T10:45:36;19.4;;;6.2;;
58306;SDS011;44116;50.884;4.768;2023-01-31T10:47:39;20.7;;;5.8;;
58306;SDS011;44116;50.884;4.768;2023-01-31T10:49:36;19.8;;;6.1;;
58306;SDS011;44116;50.884;4.768;2023-01-31T10:53:48;21.7;;;6.3;;
58306;SDS011;44116;50.884;4.768;2023-01-31T10:55:47;20.7;;;5.6;;
58306;SDS011;44116;50.884;4.768;2023-01-31T10:57:34;18.2;;;5.7;;
58306;SDS011;44116;50.884;4.768;2023-01-31T10:59:36;15.7;;;5.8;;
58306;SDS011;44116;50.884;4.768;2023-01-31T11:01:34;24.4;;;6.7;;
58306;SDS011;44116;50.884;4.768;2023-01-31T11:03:33;18.2;;;5.6;;
58306;SDS011;44116;50.884;4.768;2023-01-31T11:05:36;18.9;;;5.8;;
58306;SDS011;44116;50.884;4.768;2023-01-31T11:07:33;19.8;;;5.5;;
58306;SDS011;44116;50.884;4.768;2023-01-31T11:09:36;17.6;;;5.6;;
58306;SDS011;44116;50.884;4.768;2023-01-31T11:11:51;20.4;;;6.0;;
58306;SDS011;44116;50.884;4.768;2023-01-31T11:13:31;26.8;;;7.4;;
58306;SDS011;44116;50.884;4.768;2023-01-31T11:15:35;19.6;;;6.3;;
58306;SDS011;44116;50.884;4.768;2023-01-31T11:17:32;19.4;;;6.2;;
58306;SDS011;44116;50.884;4.768;2023-01-31T11:19:34;18.5;;;5.9;;
58306;SDS011;44116;50.884;4.768;2023-01-31T11:21:32;19.9;;;5.5;;
58306;SDS011;44116;50.884;4.768;2023-01-31T11:25:31;16.2;;;5.6;;
58306;SDS011;44116;50.884;4.768;2023-01-31T11:27:34;18.4;;;5.9;;
58306;SDS011;44116;50.884;4.768;2023-01-31T11:29:32;18.1;;;5.7;;
58306;SDS011;44116;50.884;4.768;2023-01-31T11:31:36;20.6;;;5.5;;
58306;SDS011;44116;50.884;4.768;2023-01-31T11:33:39;19.5;;;5.3;;
58306;SDS011;44116;50.884;4.768;2023-01-31T11:35:29;17.5;;;5.7;;
58306;SDS011;44116;50.884;4.768;2023-01-31T11:37:27;17.2;;;5.6;;
58306;SDS011;44116;50.884;4.768;2023-01-31T11:39:29;21.9;;;7.0;;
58306;SDS011;44116;50.884;4.768;2023-01-31T11:41:28;16.2;;;5.5;;
58306;SDS011;44116;50.884;4.768;2023-01-31T11:43:29;20.8;;;5.8;;
58306;SDS011;44116;50.884;4.768;2023-01-31T11:45:27;18.4;;;5.6;;
58306;SDS011;44116;50.884;4.768;2023-01-31T11:47:32;17.9;;;6.0;;
58306;SDS011;44116;50.884;4.768;2023-01-31T11:49:28;18.7;;;5.3;;
58306;SDS011;44116;50.884;4.768;2023-01-31T11:51:28;15.3;;;5.0;;
58306;SDS011;44116;50.884;4.768;2023-01-31T11:53:26;16.5;;;4.9;;
58306;SDS011;44116;50.884;4.768;2023-01-31T11:55:24;16.2;;;5.8;;
58306;SDS011;44116;50.884;4.768;2023-01-31T11:57:26;18.5;;;5.3;;
58306;SDS011;44116;50.884;4.768;2023-01-31T11:59:25;18.6;;;4.8;;
58306;SDS011;44116;50.884;4.768;2023-01-31T12:01:25;17.0;;;4.6;;
58306;SDS011;44116;50.884;4.768;2023-01-31T12:03:23;14.5;;;4.7;;
58306;SDS011;44116;50.884;4.768;2023-01-31T12:07:23;14.1;;;4.5;;
58306;SDS011;44116;50.884;4.768;2023-01-31T12:09:24;17.6;;;4.8;;
58306;SDS011;44116;50.884;4.768;2023-01-31T12:11:27;18.8;;;5.2;;
58306;SDS011;44116;50.884;4.768;2023-01-31T12:13:21;14.1;;;4.4;;
58306;SDS011;44116;50.884;4.768;2023-01-31T12:15:20;17.8;;;5.1;;
58306;SDS011;44116;50.884;4.768;2023-01-31T12:17:20;16.1;;;4.9;;
58306;SDS011;44116;50.884;4.768;2023-01-31T12:19:27;19.2;;;5.4;;
58306;SDS011;44116;50.884;4.768;2023-01-31T12:21:29;18.7;;;4.8;;
58306;SDS011;44116;50.884;4.768;2023-01-31T12:23:26;18.6;;;5.6;;
58306;SDS011;44116;50.884;4.768;2023-01-31T12:25:24;16.8;;;5.0;;
58306;SDS011;44116;50.884;4.768;2023-01-31T12:27:28;12.9;;;4.6;;
58306;SDS011;44116;50.884;4.768;2023-01-31T12:31:31;19.1;;;5.2;;
58306;SDS011;44116;50.884;4.768;2023-01-31T12:33:30;16.5;;;4.8;;
58306;SDS011;44116;50.884;4.768;2023-01-31T12:35:30;15.2;;;4.5;;
58306;SDS011;44116;50.884;4.768;2023-01-31T12:37:26;17.8;;;5.3;;
58306;SDS011;44116;50.884;4.768;2023-01-31T12:39:30;17.1;;;5.1;;
58306;SDS011;44116;50.884;4.768;2023-01-31T12:41:25;18.7;;;5.7;;
58306;SDS011;44116;50.884;4.768;2023-01-31T12:43:29;14.7;;;4.6;;
58306;SDS011;44116;50.884;4.768;2023-01-31T12:45:24;19.5;;;5.5;;
58306;SDS011;44116;50.884;4.768;2023-01-31T12:47:28;18.8;;;5.3;;
58306;SDS011;44116;50.884;4.768;2023-01-31T12:49:27;16.5;;;4.7;;
58306;SDS011;44116;50.884;4.768;2023-01-31T12:51:24;16.7;;;4.9;;
58306;SDS011;44116;50.884;4.768;2023-01-31T12:55:22;15.4;;;5.5;;
58306;SDS011;44116;50.884;4.768;2023-01-31T12:57:23;18.4;;;5.7;;
58306;SDS011;44116;50.884;4.768;2023-01-31T12:59:24;17.9;;;5.8;;
58306;SDS011;44116;50.884;4.768;2023-01-31T13:01:15;20.4;;;5.2;;
58306;SDS011;44116;50.884;4.768;2023-01-31T13:03:25;21.0;;;5.7;;
58306;SDS011;44116;50.884;4.768;2023-01-31T13:05:23;16.7;;;5.3;;
58306;SDS011;44116;50.884;4.768;2023-01-31T13:07:14;15.4;;;5.1;;
58306;SDS011;44116;50.884;4.768;2023-01-31T13:09:17;21.7;;;6.3;;
58306;SDS011;44116;50.884;4.768;2023-01-31T13:11:13;21.1;;;5.5;;
58306;SDS011;44116;50.884;4.768;2023-01-31T13:15:17;18.6;;;5.3;;
58306;SDS011;44116;50.884;4.768;2023-01-31T13:17:12;17.2;;;5.5;;
58306;SDS011;44116;50.884;4.768;2023-01-31T13:19:14;18.5;;;5.8;;
58306;SDS011;44116;50.884;4.768;2023-01-31T13:21:13;20.3;;;5.9;;
58306;SDS011;44116;50.884;4.768;2023-01-31T13:23:12;21.5;;;6.2;;
58306;SDS011;44116;50.884;4.768;2023-01-31T13:25:15;20.5;;;5.7;;